Date,TemperatureHighF,TemperatureAvgF,TemperatureLowF,DewpointHighF,DewpointAvgF,DewpointLowF,HumidityHigh,HumidityAvg,HumidityLow,PressureMaxIn,PressureMinIn,WindSpeedMaxMPH,WindSpeedAvgMPH,GustSpeedMaxMPH,PrecipitationSumIn
2014-1-1,46.6,40.8,34.2,46.2,40.3,33.6,99,98,97,30.34,30.20,4,0,6,0.00
2014-1-2,51.1,45.4,38.3,47.8,43.6,37.8,99,94,74,30.21,29.99,16,4,20,0.50
2014-1-3,47.7,41.2,29.6,43.2,38.2,28.3,97,89,80,30.34,30.10,11,2,17,0.00
2014-1-4,47.5,32.8,25.6,40.2,29.8,24.6,98,90,68,30.42,30.33,6,1,9,0.01
2014-1-5,56.3,40.7,25.2,39.6,27.5,23.4,98,66,31,30.37,30.15,23,4,30,0.01
2014-1-6,52.2,48.0,43.1,42.3,33.2,24.1,94,60,37,30.18,30.10,27,8,32,0.18
2014-1-7,47.4,45.6,42.5,46.8,43.8,40.3,98,93,82,30.10,29.96,21,7,26,0.66
2014-1-8,50.3,47.3,45.3,49.2,46.3,42.5,98,96,90,30.02,29.74,22,6,33,0.73
2014-1-9,49.3,46.5,44.2,48.5,44.8,41.6,97,94,87,30.03,29.82,20,6,30,0.41
2014-1-10,49.6,48.5,47.0,49.1,46.9,44.2,98,94,87,30.14,29.61,25,10,39,0.63
2014-1-11,50.2,48.0,45.2,49.6,44.9,39.6,98,89,75,29.99,29.47,36,13,53,0.67
2014-1-12,50.2,48.2,44.9,49.4,46.5,40.9,98,94,78,30.45,30.00,16,5,22,0.28
2014-1-13,50.2,48.6,47.5,48.7,47.3,46.4,97,95,94,30.66,30.45,10,3,17,0.11
2014-1-14,51.4,45.0,37.3,49.8,43.8,35.8,99,96,91,30.66,30.55,7,1,10,0.01
2014-1-15,54.2,41.0,32.4,48.3,38.9,31.1,99,93,74,30.56,30.41,8,1,13,0.01
2014-1-16,60.6,39.5,29.3,48.9,36.3,28.6,99,89,52,30.41,30.23,5,0,9,0.01
2014-1-17,58.5,39.8,31.0,46.8,36.5,29.9,99,89,62,30.22,30.10,4,0,7,0.01
2014-1-18,47.9,44.5,36.3,44.5,41.8,34.4,95,90,77,30.27,30.14,12,2,18,0.00
2014-1-19,43.7,37.5,30.2,43.2,36.8,29.4,98,97,94,30.22,30.13,5,0,6,0.01
2014-1-20,59.4,44.1,29.0,42.8,35.9,28.3,99,76,50,30.22,30.16,16,4,21,0.01
2014-1-21,50.4,46.2,39.6,45.2,40.1,32.1,97,80,60,30.35,30.18,13,4,20,0.06
2014-1-22,47.9,44.8,38.4,47.3,44.0,36.9,98,97,94,30.40,30.33,7,2,12,0.08
2014-1-23,56.8,44.3,30.1,44.9,36.5,29.1,99,77,48,30.35,30.25,19,4,25,0.01
2014-1-24,62.5,55.7,51.3,33.4,29.5,24.2,50,37,28,30.28,30.19,27,13,34,0.00
2014-1-25,61.1,47.6,34.2,45.3,35.5,25.0,92,65,36,30.34,30.21,14,1,17,0.00
2014-1-26,54.7,39.3,29.3,46.8,35.5,28.0,98,87,66,30.21,30.03,5,0,6,0.01
2014-1-27,49.4,41.4,33.1,41.2,36.1,31.6,96,83,57,30.17,30.05,17,3,21,0.01
2014-1-28,52.7,47.5,43.0,48.2,44.9,40.6,97,91,81,30.19,29.88,17,6,22,0.59
2014-1-29,50.2,47.6,44.3,49.7,46.4,42.2,98,96,89,29.93,29.68,22,7,27,0.48
2014-1-30,47.9,44.3,41.5,43.3,41.3,38.6,96,89,81,29.97,29.92,13,3,18,0.33
2014-1-31,49.2,42.2,32.0,45.3,39.6,29.9,98,91,77,30.15,29.94,8,1,12,0.02
2014-2-1,47.9,39.1,31.1,43.5,36.8,29.6,98,92,73,30.16,30.03,11,1,13,0.01
2014-2-2,47.9,36.2,27.2,40.8,33.5,26.2,98,90,73,30.03,29.94,7,1,12,0.02
2014-2-3,44.6,35.5,25.9,38.0,31.2,23.8,98,85,58,30.15,30.00,11,1,12,0.00
2014-2-4,43.1,32.5,23.8,30.7,25.9,19.4,94,78,57,30.32,30.15,14,4,18,0.00
2014-2-5,35.2,28.8,23.5,19.4,12.4,5.7,66,50,40,30.36,30.15,25,10,33,0.00
2014-2-6,29.2,25.0,18.2,21.5,13.6,5.1,88,63,44,30.15,29.74,26,9,33,0.00
2014-2-7,35.9,29.0,17.7,30.9,23.1,14.9,93,79,58,29.87,29.65,24,7,31,0.00
2014-2-8,36.1,33.2,30.1,32.0,29.7,26.3,95,87,73,29.91,29.70,26,10,38,0.17
2014-2-9,45.0,38.7,33.0,42.4,36.7,31.6,96,93,89,30.03,29.91,10,3,12,0.13
2014-2-10,51.4,47.7,41.8,49.6,46.1,39.0,97,94,85,30.11,29.97,18,9,25,0.17
2014-2-11,48.7,47.5,45.2,48.0,46.9,44.6,98,98,96,30.12,29.54,30,8,45,0.91
2014-2-12,52.3,49.1,45.3,51.1,47.0,43.6,98,93,74,29.92,29.52,27,7,43,0.43
2014-2-13,52.6,48.6,44.7,48.2,45.2,41.9,97,88,78,30.12,29.63,21,6,26,0.14
2014-2-14,51.9,48.6,40.5,50.6,46.4,38.9,96,92,82,29.95,29.61,22,7,32,0.29
2014-2-15,51.3,45.9,39.1,50.5,43.5,37.5,97,91,78,29.91,29.22,30,11,45,1.14
2014-2-16,50.2,45.2,37.4,47.2,41.5,35.4,98,87,69,29.95,29.72,30,12,41,1.91
2014-2-17,49.4,46.2,43.2,45.9,44.0,42.0,98,92,81,29.94,29.72,16,4,23,0.37
2014-2-18,50.0,46.9,42.1,48.9,43.8,36.0,96,89,71,29.95,29.69,23,8,33,0.66
2014-2-19,48.2,44.3,41.5,45.2,40.0,35.6,96,85,72,30.18,29.93,17,5,25,0.38
2014-2-20,49.6,46.4,42.3,46.6,44.0,40.9,97,91,82,30.27,30.10,17,4,23,0.13
2014-2-21,47.0,41.8,37.0,42.7,37.6,33.4,97,86,66,30.32,30.25,11,1,16,0.03
2014-2-22,45.8,41.1,36.5,39.3,37.0,33.7,92,85,74,30.25,30.05,7,1,9,0.00
2014-2-23,47.1,41.7,32.0,45.3,38.7,30.5,97,90,67,30.06,29.92,14,3,17,0.12
2014-2-24,52.2,48.9,45.4,51.7,48.2,44.6,98,97,97,30.00,29.92,13,4,17,0.36
2014-2-25,59.5,50.6,45.4,47.6,42.8,35.8,97,76,58,30.00,29.87,26,11,34,0.00
2014-2-26,54.9,49.1,45.1,44.9,38.1,35.1,80,66,58,29.87,29.62,21,8,27,0.02
2014-2-27,53.0,47.9,41.5,46.2,42.6,36.4,93,82,65,29.73,29.59,11,2,14,0.09
2014-2-28,64.8,52.4,43.4,48.4,44.9,38.1,96,77,52,29.71,29.40,12,3,15,0.00
2014-3-1,53.0,47.7,40.3,48.6,43.1,35.9,96,84,73,29.69,29.46,14,6,24,0.04
2014-3-2,51.0,47.6,44.1,50.2,46.6,43.1,98,96,95,29.77,29.51,26,9,32,0.80
2014-3-3,51.0,49.5,47.4,50.5,48.7,46.6,98,97,95,29.93,29.64,23,9,31,0.56
2014-3-4,52.9,50.7,48.5,51.8,49.6,47.4,98,96,93,29.97,29.73,16,8,22,0.28
2014-3-5,54.1,52.4,51.6,53.5,51.7,50.0,99,97,94,29.73,29.43,26,12,40,1.49
2014-3-6,52.7,50.5,47.7,50.4,48.9,46.6,97,94,90,30.14,29.45,22,11,40,0.49
2014-3-7,56.2,49.4,41.7,51.9,47.2,40.1,98,92,80,30.27,30.07,14,4,20,0.05
2014-3-8,52.4,50.0,46.8,51.0,48.0,44.4,98,93,80,30.08,29.74,34,11,39,1.16
2014-3-9,53.1,50.1,48.1,51.8,49.5,47.6,99,98,94,30.04,29.90,7,2,12,0.54
2014-3-10,51.2,47.1,40.1,48.1,44.9,38.2,98,92,83,30.49,29.98,14,3,20,0.34
2014-3-11,56.8,44.2,32.5,47.2,40.4,31.3,98,87,66,30.56,30.38,12,1,16,0.00
2014-3-12,60.2,45.7,33.6,45.4,39.5,32.3,98,81,44,30.38,30.19,11,2,13,0.01
2014-3-13,54.1,47.0,37.6,48.6,44.9,35.9,97,93,78,30.19,30.02,11,3,17,0.28
2014-3-14,55.5,50.2,44.3,51.7,48.3,42.4,97,93,84,30.32,29.96,20,6,30,0.56
2014-3-15,53.8,50.6,46.0,51.7,47.9,42.5,97,91,76,30.31,30.21,20,8,29,0.62
2014-3-16,51.2,46.5,42.1,50.4,45.7,41.0,98,97,90,30.27,30.06,16,3,23,1.34
2014-3-17,48.7,45.5,43.1,42.9,38.7,35.4,95,77,61,30.40,30.11,17,7,28,0.07
2014-3-18,48.4,45.8,44.1,47.6,44.9,42.9,98,96,94,30.35,30.18,11,4,13,0.21
2014-3-19,49.9,46.1,43.9,47.7,42.9,35.4,98,89,68,30.27,30.11,14,3,20,0.22
2014-3-20,48.9,43.0,36.1,43.3,37.7,33.5,96,82,68,30.38,30.27,12,2,16,0.04
2014-3-21,50.7,41.4,31.1,40.3,35.6,29.1,96,81,60,30.36,30.28,16,3,21,0.01
2014-3-22,52.4,41.4,27.5,42.8,36.0,26.0,98,82,56,30.31,30.25,9,1,15,0.00
2014-3-23,54.4,46.6,38.7,47.1,43.1,36.6,98,88,70,30.30,30.18,11,1,12,0.02
2014-3-24,67.0,50.3,35.8,47.0,40.2,34.6,97,71,35,30.18,29.85,20,6,27,0.02
2014-3-25,54.8,50.5,48.1,50.7,47.3,43.4,95,89,75,29.85,29.52,28,10,37,0.57
2014-3-26,50.7,47.3,44.2,48.7,44.9,42.1,96,91,83,29.62,29.50,18,6,23,0.68
2014-3-27,53.7,48.3,44.0,49.2,45.9,42.9,97,91,77,29.85,29.52,15,5,21,0.79
2014-3-28,55.0,50.9,47.0,52.6,49.3,45.4,97,94,88,29.84,29.64,22,10,28,1.15
2014-3-29,54.5,49.7,45.4,50.0,47.1,43.5,96,91,80,29.87,29.67,22,10,32,0.76
2014-3-30,52.9,47.1,42.0,44.9,42.4,38.7,95,84,72,29.98,29.87,16,5,20,0.10
2014-3-31,58.4,49.5,42.7,46.2,42.0,38.9,94,76,53,29.92,29.68,20,8,25,0.13
2014-4-1,53.4,47.7,41.0,47.9,44.8,39.1,97,90,77,29.95,29.72,10,2,15,0.08
2014-4-2,54.1,46.9,37.7,47.6,43.3,35.9,98,88,76,30.05,29.94,14,3,18,0.00
2014-4-3,50.7,47.8,41.2,48.8,44.9,39.2,96,90,80,30.00,29.88,19,7,29,0.37
2014-4-4,50.5,46.3,40.7,47.4,44.0,38.8,98,92,83,29.97,29.93,12,3,18,0.25
2014-4-5,53.0,49.7,47.6,51.0,48.8,46.3,98,96,92,30.14,29.95,19,5,29,0.46
2014-4-6,54.0,50.3,47.6,51.6,49.3,47.1,99,96,89,30.31,30.12,13,5,15,0.08
2014-4-7,61.4,51.5,48.3,55.1,49.7,47.1,97,94,73,30.30,30.17,10,2,12,0.00
2014-4-8,52.9,50.3,44.7,51.7,49.3,43.4,98,96,93,30.20,30.11,10,4,13,0.33
2014-4-9,53.4,46.4,36.4,45.8,42.0,35.4,99,85,70,30.29,30.20,17,3,20,0.01
2014-4-10,54.2,47.4,35.4,46.2,42.1,33.1,97,82,71,30.27,30.17,19,4,21,0.00
2014-4-11,55.7,50.3,45.7,50.7,46.3,41.3,92,86,75,30.19,30.09,14,5,20,0.00
2014-4-12,55.3,50.2,41.7,48.7,44.6,39.1,91,81,74,30.17,30.08,15,4,21,0.00
2014-4-13,70.4,51.6,34.7,49.6,41.1,33.4,98,72,32,30.25,30.12,12,2,16,0.01
2014-4-14,58.2,48.7,37.4,50.2,42.5,34.0,94,80,57,30.24,30.05,15,3,21,0.00
2014-4-15,54.8,50.2,46.6,48.8,45.3,41.2,96,84,72,30.25,30.12,14,4,20,0.35
2014-4-16,52.0,50.3,47.7,51.2,49.2,46.5,98,96,94,30.12,29.95,17,6,23,0.76
2014-4-17,53.0,50.5,47.0,52.0,49.0,41.4,98,94,80,30.01,29.76,21,7,33,0.85
2014-4-18,56.9,49.0,39.1,46.2,42.0,36.5,97,78,56,30.14,29.83,11,2,14,0.01
2014-4-19,55.1,50.6,46.3,53.1,45.6,39.9,98,84,64,30.21,29.75,17,8,29,0.57
2014-4-20,58.2,50.2,42.3,49.0,45.2,39.6,95,83,67,30.25,30.12,14,5,17,0.00
2014-4-21,54.2,48.5,45.4,50.0,45.3,42.2,93,89,82,30.12,29.89,11,2,15,0.03
2014-4-22,54.9,48.4,45.5,46.2,43.4,39.6,96,83,68,29.92,29.87,19,6,27,0.54
2014-4-23,52.8,49.9,45.5,52.1,48.5,43.3,98,95,89,29.89,29.62,21,7,30,1.44
2014-4-24,55.4,51.0,45.1,52.3,47.0,42.4,98,87,70,29.90,29.61,23,7,33,0.26
2014-4-25,53.6,46.6,38.1,46.1,41.5,36.8,97,83,65,29.90,29.86,9,2,15,0.01
2014-4-26,55.1,46.3,38.5,48.5,42.8,36.6,96,88,65,29.87,29.61,22,8,32,0.45
2014-4-27,54.5,48.5,42.9,46.8,43.4,39.8,94,83,68,30.14,29.68,19,5,28,0.24
2014-4-28,59.7,51.1,41.3,48.0,44.6,39.3,96,79,53,30.31,30.14,10,2,14,0.02
2014-4-29,76.1,61.2,45.4,54.1,47.5,41.8,95,63,35,30.42,30.29,13,3,16,0.00
2014-4-30,87.6,73.1,57.7,59.4,43.2,35.7,68,35,22,30.29,30.04,25,11,32,0.00
2014-5-1,83.0,69.7,55.3,53.6,44.6,35.7,88,43,25,30.06,29.97,18,6,25,0.00
2014-5-2,57.2,54.8,52.5,54.6,52.0,49.1,96,90,82,30.09,29.97,15,5,23,0.03
2014-5-3,54.6,52.8,50.4,52.7,51.0,48.5,96,94,90,29.97,29.70,21,8,31,1.15
2014-5-4,55.2,52.7,51.2,52.6,50.9,49.5,96,93,89,29.89,29.69,21,10,31,0.34
2014-5-5,58.0,53.1,49.1,53.1,50.0,46.1,96,89,79,30.08,29.89,16,5,21,0.14
2014-5-6,58.1,52.6,44.8,48.8,45.7,42.1,96,78,62,30.09,30.03,11,2,14,0.00
2014-5-7,58.2,50.4,38.3,46.8,43.0,36.2,97,77,58,30.06,29.90,11,2,14,0.00
2014-5-8,54.6,50.5,45.5,53.8,48.8,42.4,97,94,82,29.91,29.67,20,7,27,1.33
2014-5-9,54.2,49.9,45.6,49.9,46.9,43.6,95,90,76,30.02,29.81,15,5,20,0.40
2014-5-10,57.6,50.9,43.4,50.3,46.6,40.7,98,86,70,30.31,30.02,8,2,13,0.30
2014-5-11,60.1,51.9,41.4,51.1,46.9,39.3,97,84,68,30.33,30.27,13,2,15,0.00
2014-5-12,79.6,61.2,41.2,54.6,45.6,39.3,98,63,26,30.30,30.23,17,4,21,0.00
2014-5-13,85.0,65.2,46.8,58.1,48.2,39.6,97,60,24,30.31,30.25,15,2,20,0.00
2014-5-14,89.3,68.6,48.8,59.9,52.9,46.6,97,62,29,30.26,30.03,14,3,20,0.00
2014-5-15,69.8,61.7,55.1,59.2,54.1,51.0,92,77,57,30.09,30.00,17,6,25,0.00
2014-5-16,62.6,57.9,55.4,54.0,52.4,50.1,90,82,68,30.14,30.07,13,6,21,0.00
2014-5-17,62.9,56.1,49.9,54.1,50.9,46.9,95,83,66,30.10,29.88,10,2,15,0.01
2014-5-18,61.0,54.8,49.1,56.8,52.1,46.7,97,91,73,29.90,29.82,10,3,15,0.73
2014-5-19,62.3,56.8,50.3,55.6,52.7,49.2,97,87,72,30.08,29.90,12,3,16,0.27
2014-5-20,60.0,56.4,53.3,53.4,51.1,47.4,93,82,72,30.19,30.08,16,5,22,0.00
2014-5-21,60.6,56.5,53.7,53.4,50.3,47.3,90,80,73,30.20,30.15,13,4,18,0.00
2014-5-22,67.3,59.9,55.1,60.9,56.2,52.6,95,88,75,30.15,30.02,10,3,15,0.00
2014-5-23,59.4,57.5,55.5,58.3,55.6,51.7,97,93,83,30.17,30.01,9,2,16,0.17
2014-5-24,62.2,56.6,47.8,55.7,52.5,45.1,97,87,70,30.21,30.14,11,1,13,0.09
2014-5-25,63.2,54.0,45.2,55.2,51.3,43.1,97,91,69,30.15,29.98,10,2,14,0.52
2014-5-26,61.9,56.1,46.5,54.0,50.4,43.3,97,82,65,30.21,29.99,9,2,14,0.14
2014-5-27,62.0,54.1,45.0,53.3,48.4,42.6,96,82,65,30.18,30.13,10,2,14,0.04
2014-5-28,60.6,53.5,47.6,55.0,50.3,45.7,96,89,71,30.22,30.12,14,2,20,0.61
2014-5-29,61.6,55.8,52.5,50.8,48.1,45.4,88,76,59,30.25,30.16,10,2,14,0.00
2014-5-30,61.5,55.0,42.8,54.8,50.3,40.9,97,85,70,30.16,30.02,17,5,25,0.00
2014-5-31,60.4,56.5,51.2,54.2,52.3,49.1,96,86,75,30.14,30.06,9,2,13,0.00
2014-6-1,63.2,57.7,54.4,55.2,52.6,50.4,93,83,67,30.12,30.02,11,2,15,0.00
2014-6-2,58.0,55.3,53.0,53.1,50.9,48.5,91,85,78,30.02,29.96,11,2,15,0.00
2014-6-3,62.7,57.1,54.4,53.4,50.8,48.7,90,80,68,30.13,29.96,9,2,15,0.00
2014-6-4,60.1,55.5,52.5,52.3,49.6,48.1,87,81,71,30.19,30.13,15,4,21,0.00
2014-6-5,58.6,53.4,43.3,51.4,48.4,40.7,97,84,74,30.19,30.13,17,4,20,0.00
2014-6-6,60.1,55.2,52.0,53.9,51.2,49.0,95,86,76,30.18,30.13,15,6,23,0.00
2014-6-7,60.7,55.0,52.8,55.8,53.0,51.4,97,93,83,30.24,30.17,13,5,18,0.02
2014-6-8,61.3,55.9,52.2,56.8,54.0,51.4,98,93,83,30.25,30.16,12,4,16,0.02
2014-6-9,61.4,56.2,50.4,55.3,52.4,47.9,96,87,78,30.19,30.15,18,6,26,0.01
2014-6-10,61.6,56.2,49.2,54.5,51.5,47.3,96,85,71,30.16,30.09,10,3,15,0.00
2014-6-11,63.0,58.0,55.2,58.1,55.1,52.6,97,90,79,30.09,29.88,12,3,17,0.05
2014-6-12,58.7,55.8,54.0,55.9,53.6,52.0,96,92,85,29.91,29.84,16,4,22,0.15
2014-6-13,61.4,56.3,53.0,55.7,53.1,51.2,97,89,77,30.17,29.91,12,3,16,0.02
2014-6-14,60.4,56.2,52.3,55.8,52.5,49.8,94,87,76,30.17,30.01,9,2,14,0.00
2014-6-15,60.2,55.5,51.1,53.2,51.1,47.0,96,85,69,30.01,29.92,12,3,17,0.12
2014-6-16,59.6,53.9,48.7,54.4,50.5,45.8,97,89,76,30.03,29.91,14,2,17,0.47
2014-6-17,60.5,56.6,53.3,54.9,52.5,50.3,92,86,78,30.18,30.03,11,2,16,0.00
2014-6-18,62.4,57.6,52.1,53.8,50.7,48.1,90,78,63,30.16,30.04,10,2,13,0.00
2014-6-19,67.1,59.7,49.9,58.5,54.9,48.2,97,85,69,30.10,30.00,14,6,20,0.15
2014-6-20,61.7,55.0,46.3,53.7,50.1,44.9,98,84,68,30.21,30.09,12,2,15,0.00
2014-6-21,64.5,55.4,42.4,54.7,49.7,39.9,97,82,61,30.16,30.06,16,4,20,0.01
2014-6-22,65.5,58.1,50.5,55.5,52.5,48.8,97,83,61,30.10,30.02,16,5,20,0.00
2014-6-23,64.3,58.5,50.6,58.4,54.9,48.3,97,88,76,30.10,30.00,8,1,12,0.01
2014-6-24,63.7,60.2,57.9,61.3,58.6,56.6,97,95,90,30.13,30.04,10,3,17,0.34
2014-6-25,66.0,58.4,55.4,61.6,56.4,54.1,96,93,81,30.05,29.83,11,3,17,0.00
2014-6-26,62.9,58.8,55.8,56.8,55.0,52.6,97,87,70,29.87,29.78,12,4,17,0.09
2014-6-27,62.0,59.0,56.9,60.1,57.7,55.1,98,95,90,29.91,29.69,20,7,30,0.74
2014-6-28,63.9,59.8,57.2,60.7,57.9,56.1,97,93,86,30.07,29.90,16,4,21,0.29
2014-6-29,65.7,60.3,55.9,59.0,56.4,53.3,97,87,71,30.24,30.07,11,2,16,0.01
2014-6-30,73.2,62.8,56.6,61.6,57.4,54.0,94,83,59,30.24,29.95,18,5,26,0.00
2014-7-1,92.3,66.5,50.2,63.4,57.2,48.8,99,76,27,29.95,29.75,14,2,20,0.00
2014-7-2,67.0,62.0,57.2,59.2,57.2,54.6,95,85,70,30.06,29.87,10,2,15,0.00
2014-7-3,64.8,61.1,57.2,56.8,54.8,51.8,93,80,69,30.14,30.05,10,3,15,0.01
2014-7-4,65.2,57.9,46.8,57.7,52.7,44.6,97,83,71,30.09,30.02,11,2,17,0.00
2014-7-5,70.0,62.0,53.4,61.0,56.9,51.4,96,84,67,30.14,30.05,10,2,13,0.00
2014-7-6,71.3,63.4,53.6,65.5,60.5,51.7,97,91,80,30.18,30.11,12,3,14,0.00
2014-7-7,66.7,61.9,56.9,64.0,60.4,56.1,98,95,86,30.14,30.07,16,6,22,0.01
2014-7-8,65.4,60.3,57.1,60.3,57.5,55.7,97,91,82,30.10,30.05,16,6,23,0.00
2014-7-9,62.9,59.3,56.6,57.7,55.9,54.8,96,89,80,30.08,30.00,13,4,17,0.00
2014-7-10,65.6,60.2,56.7,59.0,56.1,54.3,92,86,77,30.00,29.92,9,2,14,0.00
2014-7-11,62.7,57.7,54.4,59.4,55.8,52.9,97,94,87,30.04,29.93,10,2,12,0.00
2014-7-12,64.3,58.9,56.2,59.4,57.0,55.4,98,94,83,30.14,30.02,11,2,14,0.00
2014-7-13,59.5,57.1,54.9,57.4,55.9,54.1,97,96,92,30.17,30.07,9,2,16,0.01
2014-7-14,62.9,59.3,56.9,59.5,57.4,55.5,98,93,86,30.16,30.13,11,2,13,0.01
2014-7-15,63.2,58.3,55.2,59.3,56.3,54.4,97,93,85,30.14,30.03,15,5,20,0.00
2014-7-16,63.1,58.2,54.8,59.2,56.3,54.1,98,94,85,30.07,30.02,8,2,12,0.01
2014-7-17,66.4,60.6,52.5,59.4,56.2,49.8,97,86,76,30.10,30.03,11,2,17,0.00
2014-7-18,64.8,57.9,47.9,58.7,54.4,46.2,97,88,79,30.17,30.08,10,3,16,0.00
2014-7-19,68.4,61.8,58.7,64.4,60.2,56.8,98,95,84,30.12,29.99,13,2,17,0.09
2014-7-20,65.2,60.3,56.4,57.9,56.4,54.4,97,87,69,30.01,29.98,13,2,17,0.00
2014-7-21,67.8,58.5,46.1,58.4,52.9,44.3,98,83,60,30.05,29.99,12,2,14,0.00
2014-7-22,70.2,60.4,49.0,58.5,53.7,46.8,97,80,59,30.05,30.00,9,1,12,0.00
2014-7-23,66.8,60.4,56.6,60.1,57.2,53.1,97,89,71,30.07,29.96,18,6,27,0.32
2014-7-24,65.5,60.9,57.7,59.1,57.0,55.1,96,88,72,30.27,30.02,15,3,24,0.29
2014-7-25,67.9,59.5,48.6,58.2,54.3,46.7,97,84,63,30.20,30.11,12,3,17,0.00
2014-7-26,68.3,59.1,46.5,60.0,54.6,44.9,98,85,68,30.17,30.12,16,4,20,0.01
2014-7-27,69.9,62.3,56.0,61.2,58.0,54.3,95,86,73,30.17,30.10,16,6,24,0.00
2014-7-28,64.1,59.4,55.8,59.8,57.1,55.0,98,92,85,30.14,30.09,15,6,21,0.01
2014-7-29,64.7,59.2,55.3,60.9,57.5,54.5,98,94,85,30.17,30.12,15,5,23,0.00
2014-7-30,66.0,60.7,55.6,59.9,56.5,51.4,97,87,71,30.16,30.11,15,6,24,0.01
2014-7-31,69.5,61.0,54.4,60.5,55.7,51.8,93,83,68,30.12,30.05,16,6,23,0.00
2014-8-1,66.8,60.7,55.4,60.2,57.5,53.7,97,89,78,30.08,29.99,17,5,21,0.00
2014-8-2,65.2,60.7,58.0,60.0,58.1,56.8,97,91,82,30.06,29.99,7,1,10,0.00
2014-8-3,67.2,61.5,56.0,60.5,57.8,54.8,96,88,76,30.06,29.97,13,4,20,0.00
2014-8-4,61.1,58.1,55.4,57.9,56.5,54.3,97,95,88,30.05,29.99,15,4,24,0.01
2014-8-5,67.9,61.4,56.9,62.3,58.9,56.1,98,92,80,30.14,30.05,9,2,12,0.04
2014-8-6,68.2,61.5,56.8,61.6,57.9,53.1,98,88,70,30.18,30.11,13,3,20,0.00
2014-8-7,66.1,60.5,56.8,58.5,56.2,54.5,93,86,73,30.15,30.10,14,4,21,0.00
2014-8-8,67.9,61.9,58.2,60.5,58.2,56.5,95,88,73,30.16,30.10,13,4,18,0.00
2014-8-9,67.0,60.6,54.6,59.7,56.7,53.5,97,87,75,30.16,30.11,17,5,24,0.00
2014-8-10,72.1,61.2,48.7,59.7,55.2,47.1,98,82,59,30.12,29.96,13,4,20,0.00
2014-8-11,75.8,61.0,50.6,64.7,56.5,49.1,98,86,63,29.98,29.85,10,2,14,0.00
2014-8-12,63.9,59.4,57.1,60.9,57.9,55.8,98,95,86,29.95,29.84,9,2,12,0.03
2014-8-13,61.5,59.5,56.8,61.1,58.8,55.8,99,98,96,30.01,29.92,9,2,15,0.87
2014-8-14,68.0,62.7,58.9,64.6,61.1,57.4,99,95,83,30.01,29.97,8,2,12,0.01
2014-8-15,68.7,62.5,58.0,62.9,60.3,57.1,98,93,80,30.08,29.98,6,1,9,0.01
2014-8-16,70.5,61.9,53.3,62.2,58.3,51.9,98,89,73,30.11,30.06,13,4,20,0.00
2014-8-17,66.5,59.3,55.0,60.2,56.9,54.4,99,92,79,30.15,30.06,15,5,22,0.00
2014-8-18,69.2,60.0,54.5,63.2,57.4,53.8,99,92,76,30.06,29.86,13,4,20,0.00
2014-8-19,67.2,60.8,52.7,62.5,58.9,50.3,98,94,82,29.92,29.85,10,2,13,0.01
2014-8-20,68.5,59.2,49.1,59.4,54.2,48.0,99,84,65,30.03,29.90,9,1,12,0.01
2014-8-21,68.8,59.4,47.0,59.5,54.9,45.1,98,85,69,30.05,29.97,8,1,12,0.10
2014-8-22,62.7,58.9,56.1,59.5,56.7,55.0,97,92,84,30.11,29.98,11,3,14,0.50
2014-8-23,67.4,58.0,54.7,61.6,56.3,53.8,98,94,79,30.14,30.05,11,3,16,0.00
2014-8-24,69.3,61.0,55.8,62.0,58.4,54.6,98,92,71,30.05,29.94,12,3,16,0.02
2014-8-25,70.1,61.1,55.1,64.5,58.2,54.3,99,91,74,30.01,29.96,12,3,17,0.00
2014-8-26,66.0,58.5,54.2,60.6,56.6,53.5,99,94,81,30.06,30.01,14,4,17,0.00
2014-8-27,67.7,60.4,56.1,61.2,58.2,55.3,98,93,78,30.10,30.03,12,3,17,0.00
2014-8-28,71.0,63.1,59.4,65.2,61.2,58.5,98,94,80,30.13,30.02,7,2,12,0.02
2014-8-29,69.2,62.8,58.6,63.8,60.4,57.8,97,92,81,30.03,29.95,9,2,13,0.00
2014-8-30,67.5,61.2,54.4,63.0,59.5,53.6,98,94,84,30.01,29.84,16,3,22,0.08
2014-8-31,70.3,61.2,51.9,62.2,58.2,51.1,99,90,73,30.08,30.00,11,2,13,0.00
2014-9-1,71.5,63.8,58.2,63.6,60.5,56.2,97,90,74,30.08,30.00,8,2,12,0.00
2014-9-2,67.3,61.4,56.9,62.4,58.1,53.2,97,89,77,30.00,29.93,11,3,18,0.02
2014-9-3,65.6,58.2,47.8,55.8,52.7,45.6,97,82,68,30.11,29.99,9,2,13,0.00
2014-9-4,79.6,59.1,41.0,58.8,51.8,39.7,98,79,45,30.09,30.01,16,3,23,0.00
2014-9-5,89.3,66.7,46.8,61.3,51.0,45.4,99,65,23,30.04,29.94,11,2,16,0.01
2014-9-6,91.0,65.4,54.0,60.2,53.4,44.0,93,70,22,29.96,29.87,17,4,22,0.00
2014-9-7,64.4,58.5,55.3,58.3,55.7,53.9,95,91,79,29.92,29.89,7,2,10,0.00
2014-9-8,63.0,59.4,53.1,61.4,57.8,50.5,97,95,90,30.00,29.90,9,2,14,0.03
2014-9-9,67.2,59.0,50.4,58.8,54.6,48.7,98,86,70,30.17,30.00,10,2,12,0.00
2014-9-10,67.5,60.3,53.3,58.2,54.5,39.6,91,82,62,30.18,30.10,10,2,16,0.00
2014-9-11,79.6,65.8,45.8,44.2,41.1,35.1,81,43,21,30.19,30.04,17,5,22,0.00
2014-9-12,82.1,63.7,48.2,50.0,41.4,35.1,85,48,19,30.04,29.88,14,3,21,0.00
2014-9-13,87.8,62.5,42.1,56.0,44.0,37.1,97,60,17,29.89,29.80,12,2,17,0.00
2014-9-14,83.4,60.9,42.3,56.8,46.8,39.8,96,66,23,29.84,29.80,8,1,12,0.00
2014-9-15,71.5,57.1,43.4,59.2,52.1,40.9,98,84,57,29.89,29.80,12,3,16,0.00
2014-9-16,67.5,61.2,56.0,57.9,56.0,53.5,93,84,70,29.92,29.84,11,3,17,0.02
2014-9-17,67.8,59.5,51.4,61.4,56.9,49.7,97,91,78,29.84,29.70,7,1,12,0.13
2014-9-18,66.9,61.3,58.2,62.3,59.4,57.3,98,94,84,29.99,29.73,9,2,13,0.01
2014-9-19,69.8,62.8,59.0,62.7,60.2,57.7,98,92,75,30.11,29.99,10,3,13,0.00
2014-9-20,90.3,70.8,57.2,63.1,60.0,56.1,98,73,38,30.07,29.77,12,3,18,0.00
2014-9-21,66.3,59.5,56.0,60.1,57.2,54.4,98,92,78,29.95,29.84,16,7,26,0.01
2014-9-22,67.4,60.8,57.9,60.0,57.8,56.4,98,90,75,30.00,29.86,13,4,20,0.02
2014-9-23,63.5,61.1,58.2,62.6,60.0,56.8,97,96,93,29.89,29.64,18,7,26,1.69
2014-9-24,66.3,61.6,59.3,60.7,59.1,58.1,98,92,81,29.83,29.69,21,10,28,0.13
2014-9-25,67.6,61.7,57.7,59.8,57.6,54.5,95,87,70,29.84,29.79,17,8,27,0.23
2014-9-26,66.9,61.6,55.3,62.6,59.4,53.4,98,93,79,30.09,29.84,18,4,25,0.54
2014-9-27,69.0,58.1,48.5,59.9,54.4,47.4,98,88,70,30.11,30.05,14,3,18,0.00
2014-9-28,72.4,57.0,43.4,59.0,52.7,42.1,99,87,59,30.06,29.92,12,2,17,0.01
2014-9-29,63.4,58.3,54.6,60.9,56.4,53.2,98,94,86,30.03,29.89,13,3,20,0.36
2014-9-30,65.4,58.9,52.1,58.7,55.3,49.8,97,88,78,30.19,30.02,11,2,15,0.15
2014-10-1,64.5,54.9,47.6,57.1,51.0,46.1,98,88,70,30.23,30.18,8,1,13,0.01
2014-10-2,66.7,55.2,43.5,57.0,50.8,42.2,98,86,65,30.26,30.20,8,1,12,0.01
2014-10-3,73.9,57.3,42.2,56.0,48.7,41.1,99,77,42,30.22,30.13,12,1,15,0.00
2014-10-4,73.3,58.4,46.4,61.7,53.6,44.7,98,85,57,30.18,30.10,11,1,15,0.00
2014-10-5,73.1,61.2,51.3,64.3,57.6,49.9,98,89,71,30.12,30.05,11,2,17,0.00
2014-10-6,72.7,62.3,55.4,64.6,59.5,54.3,98,91,70,30.05,29.93,11,2,15,0.01
2014-10-7,71.7,58.2,47.6,64.5,56.5,46.1,99,94,78,29.96,29.91,12,2,18,0.01
2014-10-8,64.1,56.6,46.0,59.1,54.9,44.6,98,94,83,30.01,29.95,7,1,10,0.01
2014-10-9,62.1,55.0,49.3,59.5,54.0,48.5,99,97,89,30.03,29.98,5,1,7,0.02
2014-10-10,64.3,59.7,56.2,59.8,57.4,55.4,98,92,82,30.09,30.02,12,5,16,0.11
2014-10-11,66.5,60.3,51.9,62.5,58.5,50.6,99,94,81,30.23,30.02,11,2,16,0.10
2014-10-12,64.1,57.3,50.5,60.4,55.6,49.6,99,94,82,30.26,30.00,9,2,13,0.01
2014-10-13,64.7,56.8,51.2,57.3,53.0,50.3,97,88,63,30.00,29.68,24,6,33,0.99
2014-10-14,62.5,56.9,51.9,57.2,54.2,51.1,98,91,75,29.80,29.49,13,5,20,0.29
2014-10-15,62.7,56.9,54.0,58.1,53.7,51.5,97,90,69,29.94,29.46,18,7,24,0.73
2014-10-16,66.4,58.0,53.2,56.0,53.1,50.6,96,85,61,29.97,29.75,17,6,20,0.47
2014-10-17,60.5,57.9,55.2,59.9,55.8,52.1,98,93,86,29.82,29.65,21,10,29,0.53
2014-10-18,63.1,60.9,59.0,62.3,60.0,57.8,99,97,93,29.92,29.77,13,5,20,0.14
2014-10-19,66.8,61.1,56.9,60.1,58.7,56.1,97,92,74,29.78,29.67,23,10,33,0.97
2014-10-20,62.9,58.6,56.2,58.3,56.6,54.6,98,93,82,29.78,29.67,15,7,23,0.27
2014-10-21,61.6,57.8,54.6,58.6,55.4,52.6,96,91,86,29.90,29.68,20,9,32,0.30
2014-10-22,59.4,57.5,55.0,58.5,56.3,53.3,98,96,89,29.70,29.56,28,10,40,2.35
2014-10-23,61.4,53.8,50.0,54.9,51.2,48.1,97,91,71,29.96,29.68,15,4,22,0.83
2014-10-24,58.4,53.5,48.9,53.9,50.9,47.8,97,91,77,29.98,29.60,22,6,27,0.34
2014-10-25,59.6,56.1,53.6,57.5,52.3,46.7,94,87,71,29.83,29.18,32,13,47,0.63
2014-10-26,59.6,53.3,44.3,52.8,48.3,42.3,93,83,73,30.13,29.83,12,3,26,0.14
2014-10-27,60.1,52.8,44.1,52.9,49.7,42.2,97,89,72,30.13,29.89,15,4,21,0.12
2014-10-28,60.7,57.4,53.0,59.1,56.0,50.3,97,95,90,29.95,29.78,27,11,33,0.66
2014-10-29,61.6,57.4,50.8,58.8,55.0,49.3,99,92,83,30.11,29.94,14,4,18,0.04
2014-10-30,60.2,57.3,52.5,59.3,55.7,51.6,97,94,88,29.94,29.72,16,6,24,0.58
2014-10-31,57.8,51.4,41.8,53.9,49.4,40.5,98,93,77,29.85,29.70,12,2,15,0.52
2014-11-1,57.9,46.5,36.7,52.8,44.1,35.9,99,92,76,30.06,29.82,8,1,12,0.01
2014-11-2,57.3,53.1,44.0,56.5,52.3,42.7,98,97,95,30.12,30.04,20,4,28,1.15
2014-11-3,57.9,56.9,55.7,57.1,56.1,55.1,98,97,96,30.12,30.00,20,7,31,1.21
2014-11-4,59.7,56.0,50.8,57.9,54.5,49.4,99,95,85,30.26,29.97,20,4,33,0.61
2014-11-5,60.1,57.3,53.7,59.1,56.1,51.3,97,96,90,30.25,29.93,13,4,16,0.18
2014-11-6,59.4,56.3,46.9,58.0,53.7,44.6,97,91,81,30.32,29.79,23,7,35,0.48
2014-11-7,59.7,48.5,39.9,54.7,45.3,38.9,99,89,68,30.46,30.32,8,1,12,0.01
2014-11-8,57.3,46.1,36.2,51.3,43.5,35.2,98,91,76,30.33,30.08,5,0,7,0.01
2014-11-9,56.7,53.0,41.4,55.3,49.3,40.3,98,88,76,30.09,29.89,18,6,27,0.49
2014-11-10,58.9,50.0,41.6,50.1,42.3,34.4,96,76,49,30.14,30.02,14,4,18,0.00
2014-11-11,52.2,43.8,35.4,37.4,29.4,14.6,81,58,42,30.16,30.05,21,9,28,0.00
2014-11-12,45.2,38.7,33.9,19.4,15.0,11.5,44,38,31,30.17,29.92,33,17,43,0.00
2014-11-13,41.1,39.0,32.5,31.9,25.0,14.4,82,59,37,29.97,29.82,28,13,40,0.00
2014-11-14,48.4,34.1,24.0,33.5,25.3,21.8,95,74,37,30.24,29.97,7,1,12,0.00
2014-11-15,47.4,36.4,23.7,22.8,18.4,10.9,90,52,31,30.43,30.24,21,5,27,0.00
2014-11-16,54.3,39.8,23.8,25.3,16.7,11.7,78,44,19,30.43,30.27,21,6,27,0.00
2014-11-17,55.6,46.9,40.9,25.8,18.9,13.4,40,33,27,30.30,30.07,19,9,27,0.00
2014-11-18,56.1,49.1,42.7,30.5,24.2,17.6,49,38,32,30.08,29.98,13,3,17,0.00
2014-11-19,58.8,52.7,44.5,45.6,30.8,24.8,96,46,32,29.98,29.75,21,9,26,0.15
2014-11-20,54.4,50.6,47.0,51.4,48.7,45.6,96,93,86,29.94,29.86,14,5,15,0.10
2014-11-21,57.0,52.1,49.7,56.4,50.4,44.6,98,94,81,29.86,29.33,28,9,40,1.73
2014-11-22,54.1,49.1,44.1,49.1,45.5,41.6,97,87,75,30.17,29.61,12,2,18,0.48
2014-11-23,55.4,49.7,38.6,53.2,47.1,37.6,98,91,81,30.34,30.14,20,4,29,1.12
2014-11-24,55.9,49.6,38.2,55.3,48.5,37.2,98,96,86,30.34,30.15,18,4,33,0.33
2014-11-25,57.9,56.4,54.8,56.6,55.6,54.2,99,97,93,30.27,30.19,17,8,26,0.15
2014-11-26,59.0,55.8,54.0,55.6,54.2,53.0,99,95,81,30.24,29.88,22,6,35,0.23
2014-11-27,57.3,56.3,55.3,56.7,55.6,54.3,98,97,96,29.89,29.73,18,9,29,0.48
2014-11-28,56.0,49.5,41.9,54.9,47.8,37.2,98,94,83,29.73,29.49,15,5,22,0.79
2014-11-29,43.2,37.4,27.2,38.9,31.3,19.9,92,79,64,30.13,29.59,14,4,24,0.08
2014-11-30,42.8,33.1,23.0,27.8,23.9,20.2,92,70,51,30.14,30.01,13,3,16,0.00
2014-12-1,46.1,33.4,23.9,33.9,27.0,21.2,94,78,60,30.15,30.02,5,1,9,0.00
2014-12-2,47.5,36.7,25.2,36.0,29.9,24.0,97,78,55,30.15,29.76,18,2,26,0.01
2014-12-3,51.7,46.8,43.2,38.9,35.1,31.4,79,64,58,29.75,29.65,27,14,35,0.00
2014-12-4,52.5,48.0,44.1,49.9,45.5,38.9,97,91,79,29.86,29.70,16,7,20,0.12
2014-12-5,56.2,52.0,48.7,51.8,48.9,45.9,96,89,76,29.87,29.68,23,11,31,0.38
2014-12-6,56.9,52.5,48.9,54.8,50.9,47.2,97,94,90,30.18,29.75,15,5,18,0.18
2014-12-7,58.2,53.5,49.6,49.8,46.6,43.6,96,78,63,30.16,29.89,23,12,29,0.01
2014-12-8,59.9,55.2,50.6,53.8,48.3,44.8,88,78,66,29.97,29.78,30,13,50,0.31
2014-12-9,60.0,57.6,55.6,57.0,55.5,53.6,97,93,83,29.88,29.62,29,13,45,1.03
2014-12-10,60.6,55.1,50.7,56.9,53.0,48.0,97,93,83,29.61,29.22,27,13,41,1.89
2014-12-11,58.0,52.3,49.6,52.7,49.0,46.1,95,89,78,29.57,28.98,31,12,50,0.51
2014-12-12,55.1,47.0,40.1,50.7,44.6,38.8,98,91,79,30.04,29.57,6,1,9,0.06
2014-12-13,53.3,44.8,38.8,48.3,42.5,37.8,98,92,80,30.19,30.04,11,2,14,0.01
2014-12-14,53.3,47.0,42.7,41.2,37.8,32.5,92,71,56,30.13,29.86,32,15,40,0.00
2014-12-15,49.1,46.2,43.0,40.8,38.4,33.6,82,74,63,29.88,29.76,28,16,32,0.06
2014-12-16,51.4,46.8,43.2,46.4,41.8,37.4,90,83,72,29.78,29.74,24,12,30,0.04
2014-12-17,50.1,46.8,44.4,45.7,42.6,40.1,96,86,77,29.92,29.74,12,2,14,0.23
2014-12-18,53.7,49.1,45.0,52.1,47.6,43.8,97,95,91,29.91,29.66,25,9,38,1.58
2014-12-19,51.6,48.2,46.2,49.6,45.9,43.3,96,92,84,29.93,29.76,17,7,24,0.54
2014-12-20,55.9,53.3,46.8,55.3,52.5,45.2,99,97,94,29.78,29.51,21,11,31,1.79
2014-12-21,55.3,53.9,50.1,53.9,52.3,48.6,96,94,92,30.18,29.70,14,3,23,0.05
2014-12-22,53.9,49.2,41.0,50.7,46.9,39.4,98,92,82,30.36,30.17,11,2,14,0.00
2014-12-23,55.5,50.9,46.4,54.5,49.8,45.6,99,96,86,30.26,30.04,14,5,21,0.46
2014-12-24,49.9,45.6,42.7,45.9,43.3,41.8,98,92,78,30.08,29.92,18,4,31,0.76
2014-12-25,50.6,47.2,43.5,45.9,42.7,37.7,96,85,67,30.28,30.08,16,3,24,0.15
2014-12-26,50.2,45.9,41.6,48.0,44.6,40.5,98,95,89,30.34,30.25,6,1,10,0.01
2014-12-27,50.1,48.0,44.8,49.5,46.1,40.9,98,93,79,30.29,30.15,18,3,25,0.56
2014-12-28,50.0,47.3,42.2,43.1,39.9,35.7,90,76,66,30.24,30.11,17,5,25,0.11
2014-12-29,45.9,39.4,33.2,38.3,32.9,25.6,95,78,60,30.64,30.12,19,5,25,0.04
2014-12-30,39.2,30.4,23.9,26.2,22.8,20.5,90,74,51,30.81,30.64,11,2,13,0.00
2014-12-31,44.1,31.4,23.8,32.5,25.5,21.8,95,81,49,30.70,30.35,7,1,12,0.01
2015-1-1,48.8,33.4,24.4,37.2,27.8,22.8,96,82,46,30.35,30.17,6,0,9,0.00
2015-1-2,43.4,37.1,27.7,42.6,35.1,26.2,97,93,82,30.21,30.13,8,1,13,0.33